Weather at Serimbu Airstrip

Public forecast

Using degrees Celsius for public forecast. Weather courtesy of forecast.io.

Closest aviation weather report (METAR) to Serimbu Airstrip

Closest report is Kuching International Airport, 46.9 nm (86.8 km) NNE.

2024/05/28 17:00 (retrieved 35 minutes ago)

WBGG 281700Z VRB02KT 6000 -RA FEW015CB SCT018 25/24 Q1010 RETS NOSIG

Closest aviation forecast (TAF) to Serimbu Airstrip

Closest forecast is Kuching International Airport, 46.9 nm (86.8 km) NNE.

2024/05/28 13:18 Ammendment (retrieved 4 hours ago)

TAF AMD WBGG 281355Z 2813/2912 VRB03KT 9999 FEW020 TEMPO 2814/2818 4000 TSRA FEW015CB SCT020